sensor_id;sensor_type;location;lat;lon;timestamp;P1;durP1;ratioP1;P2;durP2;ratioP2
37087;SDS011;23002;52.676;6.432;2023-09-12T00:00:49;43.25;;;20.40;;
37087;SDS011;23002;52.676;6.432;2023-09-12T00:03:20;43.92;;;20.83;;
37087;SDS011;23002;52.676;6.432;2023-09-12T00:05:51;38.53;;;20.80;;
37087;SDS011;23002;52.676;6.432;2023-09-12T00:08:19;44.63;;;21.63;;
37087;SDS011;23002;52.676;6.432;2023-09-12T00:10:46;42.67;;;21.10;;
37087;SDS011;23002;52.676;6.432;2023-09-12T00:13:13;41.47;;;21.13;;
37087;SDS011;23002;52.676;6.432;2023-09-12T00:15:40;45.47;;;21.48;;
37087;SDS011;23002;52.676;6.432;2023-09-12T00:18:07;44.35;;;20.08;;
37087;SDS011;23002;52.676;6.432;2023-09-12T00:20:35;45.25;;;21.27;;
37087;SDS011;23002;52.676;6.432;2023-09-12T00:23:02;42.28;;;20.70;;
37087;SDS011;23002;52.676;6.432;2023-09-12T00:25:30;45.60;;;21.70;;
37087;SDS011;23002;52.676;6.432;2023-09-12T00:27:57;41.15;;;21.70;;
37087;SDS011;23002;52.676;6.432;2023-09-12T00:30:24;42.92;;;21.92;;
37087;SDS011;23002;52.676;6.432;2023-09-12T00:32:52;43.83;;;20.60;;
37087;SDS011;23002;52.676;6.432;2023-09-12T00:35:19;44.25;;;21.65;;
37087;SDS011;23002;52.676;6.432;2023-09-12T00:37:46;45.75;;;21.13;;
37087;SDS011;23002;52.676;6.432;2023-09-12T00:40:13;45.95;;;21.38;;
37087;SDS011;23002;52.676;6.432;2023-09-12T00:42:40;45.10;;;20.83;;
37087;SDS011;23002;52.676;6.432;2023-09-12T00:45:08;42.78;;;21.38;;
37087;SDS011;23002;52.676;6.432;2023-09-12T00:47:35;44.17;;;21.63;;
37087;SDS011;23002;52.676;6.432;2023-09-12T00:50:02;44.70;;;20.38;;
37087;SDS011;23002;52.676;6.432;2023-09-12T00:52:32;44.42;;;21.65;;
37087;SDS011;23002;52.676;6.432;2023-09-12T00:55:00;43.75;;;21.30;;
37087;SDS011;23002;52.676;6.432;2023-09-12T00:57:28;49.30;;;22.08;;
37087;SDS011;23002;52.676;6.432;2023-09-12T00:59:55;38.72;;;20.27;;
37087;SDS011;23002;52.676;6.432;2023-09-12T01:02:24;42.20;;;20.40;;
37087;SDS011;23002;52.676;6.432;2023-09-12T01:04:51;42.72;;;20.40;;
37087;SDS011;23002;52.676;6.432;2023-09-12T01:07:19;40.42;;;21.58;;
37087;SDS011;23002;52.676;6.432;2023-09-12T01:09:46;41.28;;;20.80;;
37087;SDS011;23002;52.676;6.432;2023-09-12T01:12:13;41.30;;;20.75;;
37087;SDS011;23002;52.676;6.432;2023-09-12T01:14:41;40.70;;;20.85;;
37087;SDS011;23002;52.676;6.432;2023-09-12T01:17:08;43.35;;;20.83;;
37087;SDS011;23002;52.676;6.432;2023-09-12T01:19:35;48.17;;;22.23;;
37087;SDS011;23002;52.676;6.432;2023-09-12T01:29:33;40.53;;;21.30;;
37087;SDS011;23002;52.676;6.432;2023-09-12T01:32:01;42.35;;;21.30;;
37087;SDS011;23002;52.676;6.432;2023-09-12T01:34:28;46.60;;;21.02;;
37087;SDS011;23002;52.676;6.432;2023-09-12T01:36:55;53.38;;;22.40;;
37087;SDS011;23002;52.676;6.432;2023-09-12T01:39:22;45.55;;;20.80;;
37087;SDS011;23002;52.676;6.432;2023-09-12T01:41:49;53.45;;;22.33;;
37087;SDS011;23002;52.676;6.432;2023-09-12T01:44:18;47.92;;;21.65;;
37087;SDS011;23002;52.676;6.432;2023-09-12T01:46:48;49.28;;;23.38;;
37087;SDS011;23002;52.676;6.432;2023-09-12T01:49:16;51.25;;;23.65;;
37087;SDS011;23002;52.676;6.432;2023-09-12T01:51:45;52.08;;;22.70;;
37087;SDS011;23002;52.676;6.432;2023-09-12T01:54:12;55.47;;;23.30;;
37087;SDS011;23002;52.676;6.432;2023-09-12T01:56:40;55.47;;;23.35;;
37087;SDS011;23002;52.676;6.432;2023-09-12T01:59:08;52.75;;;24.13;;
37087;SDS011;23002;52.676;6.432;2023-09-12T02:01:35;62.70;;;23.92;;
37087;SDS011;23002;52.676;6.432;2023-09-12T02:04:03;54.10;;;21.77;;
37087;SDS011;23002;52.676;6.432;2023-09-12T02:06:35;66.93;;;23.75;;
37087;SDS011;23002;52.676;6.432;2023-09-12T02:09:02;57.85;;;23.33;;
37087;SDS011;23002;52.676;6.432;2023-09-12T02:11:29;56.88;;;23.30;;
37087;SDS011;23002;52.676;6.432;2023-09-12T02:13:56;56.90;;;22.73;;
37087;SDS011;23002;52.676;6.432;2023-09-12T02:16:24;54.97;;;21.95;;
37087;SDS011;23002;52.676;6.432;2023-09-12T02:18:51;49.60;;;21.95;;
37087;SDS011;23002;52.676;6.432;2023-09-12T02:21:18;49.55;;;21.98;;
37087;SDS011;23002;52.676;6.432;2023-09-12T02:23:45;62.40;;;23.15;;
37087;SDS011;23002;52.676;6.432;2023-09-12T02:26:13;58.58;;;21.55;;
37087;SDS011;23002;52.676;6.432;2023-09-12T02:28:40;85.10;;;22.60;;
37087;SDS011;23002;52.676;6.432;2023-09-12T02:31:10;42.97;;;20.17;;
37087;SDS011;23002;52.676;6.432;2023-09-12T02:33:38;71.60;;;21.02;;
37087;SDS011;23002;52.676;6.432;2023-09-12T02:36:06;91.00;;;22.23;;
37087;SDS011;23002;52.676;6.432;2023-09-12T02:38:33;47.25;;;19.15;;
37087;SDS011;23002;52.676;6.432;2023-09-12T02:41:00;55.30;;;18.92;;
37087;SDS011;23002;52.676;6.432;2023-09-12T02:43:28;51.08;;;18.52;;
37087;SDS011;23002;52.676;6.432;2023-09-12T02:45:56;74.70;;;19.50;;
37087;SDS011;23002;52.676;6.432;2023-09-12T02:48:23;57.58;;;19.25;;
37087;SDS011;23002;52.676;6.432;2023-09-12T02:50:50;36.38;;;19.05;;
37087;SDS011;23002;52.676;6.432;2023-09-12T02:53:18;46.38;;;18.95;;
37087;SDS011;23002;52.676;6.432;2023-09-12T02:55:45;38.58;;;19.25;;
37087;SDS011;23002;52.676;6.432;2023-09-12T02:58:12;60.85;;;19.65;;
37087;SDS011;23002;52.676;6.432;2023-09-12T03:00:39;52.63;;;18.65;;
37087;SDS011;23002;52.676;6.432;2023-09-12T03:03:07;63.53;;;19.00;;
37087;SDS011;23002;52.676;6.432;2023-09-12T03:05:36;53.83;;;19.42;;
37087;SDS011;23002;52.676;6.432;2023-09-12T03:08:03;54.42;;;17.92;;
37087;SDS011;23002;52.676;6.432;2023-09-12T03:10:30;52.40;;;19.25;;
37087;SDS011;23002;52.676;6.432;2023-09-12T03:12:58;64.28;;;18.45;;
37087;SDS011;23002;52.676;6.432;2023-09-12T03:15:25;53.55;;;17.58;;
37087;SDS011;23002;52.676;6.432;2023-09-12T03:17:52;42.38;;;17.50;;
37087;SDS011;23002;52.676;6.432;2023-09-12T03:20:19;46.50;;;16.92;;
37087;SDS011;23002;52.676;6.432;2023-09-12T03:22:46;37.63;;;17.65;;
37087;SDS011;23002;52.676;6.432;2023-09-12T03:25:14;44.33;;;18.30;;
37087;SDS011;23002;52.676;6.432;2023-09-12T03:27:41;38.47;;;18.38;;
37087;SDS011;23002;52.676;6.432;2023-09-12T03:30:08;40.20;;;17.10;;
37087;SDS011;23002;52.676;6.432;2023-09-12T03:32:36;31.35;;;16.85;;
37087;SDS011;23002;52.676;6.432;2023-09-12T03:35:03;37.47;;;17.20;;
37087;SDS011;23002;52.676;6.432;2023-09-12T03:37:30;41.28;;;16.45;;
37087;SDS011;23002;52.676;6.432;2023-09-12T03:39:57;35.70;;;18.15;;
37087;SDS011;23002;52.676;6.432;2023-09-12T03:42:25;30.23;;;17.05;;
37087;SDS011;23002;52.676;6.432;2023-09-12T03:45:03;37.25;;;17.27;;
37087;SDS011;23002;52.676;6.432;2023-09-12T03:47:30;35.58;;;17.27;;
37087;SDS011;23002;52.676;6.432;2023-09-12T03:49:57;40.97;;;16.38;;
37087;SDS011;23002;52.676;6.432;2023-09-12T03:52:24;45.33;;;18.35;;
37087;SDS011;23002;52.676;6.432;2023-09-12T03:54:51;46.65;;;17.05;;
37087;SDS011;23002;52.676;6.432;2023-09-12T03:57:19;39.65;;;18.00;;
37087;SDS011;23002;52.676;6.432;2023-09-12T03:59:46;36.38;;;17.83;;
37087;SDS011;23002;52.676;6.432;2023-09-12T04:02:13;35.88;;;17.83;;
37087;SDS011;23002;52.676;6.432;2023-09-12T04:04:40;36.03;;;18.60;;
37087;SDS011;23002;52.676;6.432;2023-09-12T04:07:08;39.03;;;17.65;;
37087;SDS011;23002;52.676;6.432;2023-09-12T04:09:35;37.70;;;17.95;;
37087;SDS011;23002;52.676;6.432;2023-09-12T04:12:03;46.35;;;18.50;;
37087;SDS011;23002;52.676;6.432;2023-09-12T04:14:30;41.17;;;19.38;;
37087;SDS011;23002;52.676;6.432;2023-09-12T04:16:57;48.47;;;19.30;;
37087;SDS011;23002;52.676;6.432;2023-09-12T04:19:24;38.50;;;19.15;;
37087;SDS011;23002;52.676;6.432;2023-09-12T04:21:52;57.58;;;19.25;;
37087;SDS011;23002;52.676;6.432;2023-09-12T04:24:19;54.50;;;19.38;;
37087;SDS011;23002;52.676;6.432;2023-09-12T04:26:47;46.05;;;19.55;;
37087;SDS011;23002;52.676;6.432;2023-09-12T04:29:14;70.70;;;19.05;;
37087;SDS011;23002;52.676;6.432;2023-09-12T04:31:41;51.50;;;18.83;;
37087;SDS011;23002;52.676;6.432;2023-09-12T04:34:08;65.85;;;19.90;;
37087;SDS011;23002;52.676;6.432;2023-09-12T04:36:35;52.17;;;19.95;;
37087;SDS011;23002;52.676;6.432;2023-09-12T04:39:03;53.03;;;20.23;;
37087;SDS011;23002;52.676;6.432;2023-09-12T04:41:31;42.55;;;19.15;;
37087;SDS011;23002;52.676;6.432;2023-09-12T04:43:58;45.70;;;20.65;;
37087;SDS011;23002;52.676;6.432;2023-09-12T04:46:27;53.40;;;19.38;;
37087;SDS011;23002;52.676;6.432;2023-09-12T04:48:54;61.03;;;20.00;;
37087;SDS011;23002;52.676;6.432;2023-09-12T04:51:21;44.47;;;20.15;;
37087;SDS011;23002;52.676;6.432;2023-09-12T04:53:48;52.72;;;20.05;;
37087;SDS011;23002;52.676;6.432;2023-09-12T04:56:18;45.15;;;19.38;;
37087;SDS011;23002;52.676;6.432;2023-09-12T04:58:45;41.15;;;19.88;;
37087;SDS011;23002;52.676;6.432;2023-09-12T05:01:12;46.90;;;19.48;;
37087;SDS011;23002;52.676;6.432;2023-09-12T05:03:39;41.88;;;19.88;;
37087;SDS011;23002;52.676;6.432;2023-09-12T05:06:06;53.30;;;20.20;;
37087;SDS011;23002;52.676;6.432;2023-09-12T05:08:33;43.75;;;18.80;;
37087;SDS011;23002;52.676;6.432;2023-09-12T05:11:01;39.92;;;18.60;;
37087;SDS011;23002;52.676;6.432;2023-09-12T05:13:29;48.45;;;19.05;;
37087;SDS011;23002;52.676;6.432;2023-09-12T05:15:56;45.58;;;19.95;;
37087;SDS011;23002;52.676;6.432;2023-09-12T05:18:24;50.70;;;19.40;;
37087;SDS011;23002;52.676;6.432;2023-09-12T05:20:51;43.25;;;18.98;;
37087;SDS011;23002;52.676;6.432;2023-09-12T05:23:18;36.17;;;17.83;;
37087;SDS011;23002;52.676;6.432;2023-09-12T05:25:45;52.05;;;19.63;;
37087;SDS011;23002;52.676;6.432;2023-09-12T05:28:12;44.65;;;18.70;;
37087;SDS011;23002;52.676;6.432;2023-09-12T05:30:43;46.05;;;17.45;;
37087;SDS011;23002;52.676;6.432;2023-09-12T05:33:10;39.75;;;18.40;;
37087;SDS011;23002;52.676;6.432;2023-09-12T05:35:37;48.95;;;17.38;;
37087;SDS011;23002;52.676;6.432;2023-09-12T05:38:04;42.55;;;17.83;;
37087;SDS011;23002;52.676;6.432;2023-09-12T05:40:32;47.47;;;17.38;;
37087;SDS011;23002;52.676;6.432;2023-09-12T05:42:59;74.93;;;16.67;;
37087;SDS011;23002;52.676;6.432;2023-09-12T05:45:26;35.95;;;16.10;;
37087;SDS011;23002;52.676;6.432;2023-09-12T05:47:56;42.25;;;16.35;;
37087;SDS011;23002;52.676;6.432;2023-09-12T05:50:23;43.95;;;17.90;;
37087;SDS011;23002;52.676;6.432;2023-09-12T05:52:50;37.05;;;16.85;;
37087;SDS011;23002;52.676;6.432;2023-09-12T05:55:17;41.47;;;18.13;;
37087;SDS011;23002;52.676;6.432;2023-09-12T05:57:44;38.97;;;16.88;;
37087;SDS011;23002;52.676;6.432;2023-09-12T06:00:14;35.55;;;17.17;;
37087;SDS011;23002;52.676;6.432;2023-09-12T06:02:41;33.65;;;17.35;;
37087;SDS011;23002;52.676;6.432;2023-09-12T06:05:09;34.70;;;17.48;;
37087;SDS011;23002;52.676;6.432;2023-09-12T06:07:36;47.00;;;17.73;;
37087;SDS011;23002;52.676;6.432;2023-09-12T06:10:07;40.00;;;18.23;;
37087;SDS011;23002;52.676;6.432;2023-09-12T06:12:34;38.85;;;19.42;;
37087;SDS011;23002;52.676;6.432;2023-09-12T06:15:05;44.88;;;20.17;;
37087;SDS011;23002;52.676;6.432;2023-09-12T06:17:32;38.75;;;17.98;;
37087;SDS011;23002;52.676;6.432;2023-09-12T06:19:59;38.42;;;17.73;;
37087;SDS011;23002;52.676;6.432;2023-09-12T06:22:27;36.75;;;17.60;;
37087;SDS011;23002;52.676;6.432;2023-09-12T06:24:56;34.03;;;17.42;;
37087;SDS011;23002;52.676;6.432;2023-09-12T06:27:23;36.25;;;17.25;;
37087;SDS011;23002;52.676;6.432;2023-09-12T06:29:51;33.63;;;17.02;;
37087;SDS011;23002;52.676;6.432;2023-09-12T06:32:18;33.47;;;17.38;;
37087;SDS011;23002;52.676;6.432;2023-09-12T06:34:45;34.45;;;18.10;;
37087;SDS011;23002;52.676;6.432;2023-09-12T06:37:13;38.38;;;18.60;;
37087;SDS011;23002;52.676;6.432;2023-09-12T06:39:40;33.33;;;17.95;;
37087;SDS011;23002;52.676;6.432;2023-09-12T06:42:08;39.75;;;18.15;;
37087;SDS011;23002;52.676;6.432;2023-09-12T06:44:36;40.60;;;18.98;;
37087;SDS011;23002;52.676;6.432;2023-09-12T06:47:04;36.10;;;17.73;;
37087;SDS011;23002;52.676;6.432;2023-09-12T06:49:31;41.33;;;17.92;;
37087;SDS011;23002;52.676;6.432;2023-09-12T06:52:00;36.10;;;18.48;;
37087;SDS011;23002;52.676;6.432;2023-09-12T06:54:28;38.72;;;19.35;;
37087;SDS011;23002;52.676;6.432;2023-09-12T06:56:55;32.92;;;18.17;;
37087;SDS011;23002;52.676;6.432;2023-09-12T06:59:22;36.30;;;18.73;;
37087;SDS011;23002;52.676;6.432;2023-09-12T07:01:49;37.80;;;18.92;;
37087;SDS011;23002;52.676;6.432;2023-09-12T07:04:16;35.10;;;18.35;;
37087;SDS011;23002;52.676;6.432;2023-09-12T07:06:44;32.58;;;17.00;;
37087;SDS011;23002;52.676;6.432;2023-09-12T07:09:11;33.58;;;17.83;;
37087;SDS011;23002;52.676;6.432;2023-09-12T07:11:41;37.60;;;17.92;;
37087;SDS011;23002;52.676;6.432;2023-09-12T07:14:11;37.70;;;18.13;;
37087;SDS011;23002;52.676;6.432;2023-09-12T07:16:38;37.17;;;18.40;;
37087;SDS011;23002;52.676;6.432;2023-09-12T07:19:05;35.97;;;16.63;;
37087;SDS011;23002;52.676;6.432;2023-09-12T07:21:33;35.70;;;17.77;;
37087;SDS011;23002;52.676;6.432;2023-09-12T07:24:00;35.05;;;16.27;;
37087;SDS011;23002;52.676;6.432;2023-09-12T07:26:27;33.15;;;16.77;;
37087;SDS011;23002;52.676;6.432;2023-09-12T07:28:54;33.75;;;17.42;;
37087;SDS011;23002;52.676;6.432;2023-09-12T07:31:21;32.47;;;16.88;;
37087;SDS011;23002;52.676;6.432;2023-09-12T07:33:49;33.30;;;16.45;;
37087;SDS011;23002;52.676;6.432;2023-09-12T07:36:16;32.63;;;16.92;;
37087;SDS011;23002;52.676;6.432;2023-09-12T07:38:43;33.28;;;16.88;;
37087;SDS011;23002;52.676;6.432;2023-09-12T07:41:11;31.30;;;17.50;;
37087;SDS011;23002;52.676;6.432;2023-09-12T07:43:38;33.47;;;17.85;;
37087;SDS011;23002;52.676;6.432;2023-09-12T07:46:07;36.47;;;16.88;;
37087;SDS011;23002;52.676;6.432;2023-09-12T07:48:34;38.83;;;18.60;;
37087;SDS011;23002;52.676;6.432;2023-09-12T07:51:01;30.40;;;16.50;;
37087;SDS011;23002;52.676;6.432;2023-09-12T07:53:37;32.65;;;17.63;;
37087;SDS011;23002;52.676;6.432;2023-09-12T07:56:04;35.13;;;17.17;;
37087;SDS011;23002;52.676;6.432;2023-09-12T07:58:32;33.50;;;17.48;;
37087;SDS011;23002;52.676;6.432;2023-09-12T08:00:59;29.58;;;16.77;;
37087;SDS011;23002;52.676;6.432;2023-09-12T08:03:26;30.25;;;16.48;;
37087;SDS011;23002;52.676;6.432;2023-09-12T08:05:55;33.13;;;17.25;;
37087;SDS011;23002;52.676;6.432;2023-09-12T08:08:23;29.48;;;16.85;;
37087;SDS011;23002;52.676;6.432;2023-09-12T08:10:50;29.52;;;16.02;;
37087;SDS011;23002;52.676;6.432;2023-09-12T08:13:17;31.25;;;16.88;;
37087;SDS011;23002;52.676;6.432;2023-09-12T08:15:44;34.45;;;16.75;;
37087;SDS011;23002;52.676;6.432;2023-09-12T08:18:12;32.35;;;16.63;;
37087;SDS011;23002;52.676;6.432;2023-09-12T08:20:39;35.03;;;16.83;;
37087;SDS011;23002;52.676;6.432;2023-09-12T08:23:06;30.42;;;15.65;;
37087;SDS011;23002;52.676;6.432;2023-09-12T08:25:33;29.73;;;16.35;;
37087;SDS011;23002;52.676;6.432;2023-09-12T08:28:00;31.75;;;17.08;;
37087;SDS011;23002;52.676;6.432;2023-09-12T08:30:28;30.65;;;17.48;;
37087;SDS011;23002;52.676;6.432;2023-09-12T08:32:55;30.80;;;16.63;;
37087;SDS011;23002;52.676;6.432;2023-09-12T08:35:23;27.33;;;15.88;;
37087;SDS011;23002;52.676;6.432;2023-09-12T08:37:52;33.85;;;17.27;;
37087;SDS011;23002;52.676;6.432;2023-09-12T08:40:19;28.58;;;15.85;;
37087;SDS011;23002;52.676;6.432;2023-09-12T08:42:46;28.80;;;15.32;;
37087;SDS011;23002;52.676;6.432;2023-09-12T08:45:15;33.22;;;15.38;;
37087;SDS011;23002;52.676;6.432;2023-09-12T08:47:49;30.52;;;16.23;;
37087;SDS011;23002;52.676;6.432;2023-09-12T08:50:17;27.45;;;14.50;;
37087;SDS011;23002;52.676;6.432;2023-09-12T08:52:45;26.85;;;15.68;;
37087;SDS011;23002;52.676;6.432;2023-09-12T08:55:31;31.98;;;16.05;;
37087;SDS011;23002;52.676;6.432;2023-09-12T08:58:03;25.83;;;15.75;;
37087;SDS011;23002;52.676;6.432;2023-09-12T09:00:30;28.17;;;15.57;;
37087;SDS011;23002;52.676;6.432;2023-09-12T09:02:58;27.58;;;14.75;;
37087;SDS011;23002;52.676;6.432;2023-09-12T09:05:26;23.00;;;14.45;;
37087;SDS011;23002;52.676;6.432;2023-09-12T09:07:54;22.85;;;14.25;;
37087;SDS011;23002;52.676;6.432;2023-09-12T09:10:22;24.58;;;14.38;;
37087;SDS011;23002;52.676;6.432;2023-09-12T09:13:10;23.77;;;13.60;;
37087;SDS011;23002;52.676;6.432;2023-09-12T09:15:37;23.38;;;13.70;;
37087;SDS011;23002;52.676;6.432;2023-09-12T09:18:08;20.95;;;12.48;;
37087;SDS011;23002;52.676;6.432;2023-09-12T09:20:40;19.35;;;12.45;;
37087;SDS011;23002;52.676;6.432;2023-09-12T09:23:08;22.08;;;13.18;;
37087;SDS011;23002;52.676;6.432;2023-09-12T09:25:39;24.10;;;13.05;;
37087;SDS011;23002;52.676;6.432;2023-09-12T09:28:22;24.98;;;13.52;;
37087;SDS011;23002;52.676;6.432;2023-09-12T09:30:51;24.20;;;12.73;;
37087;SDS011;23002;52.676;6.432;2023-09-12T09:33:20;20.27;;;12.27;;
37087;SDS011;23002;52.676;6.432;2023-09-12T09:35:48;19.83;;;12.45;;
37087;SDS011;23002;52.676;6.432;2023-09-12T09:38:18;20.15;;;11.77;;
37087;SDS011;23002;52.676;6.432;2023-09-12T09:40:46;19.33;;;12.68;;
37087;SDS011;23002;52.676;6.432;2023-09-12T09:43:13;20.92;;;12.07;;
37087;SDS011;23002;52.676;6.432;2023-09-12T09:45:46;17.83;;;11.07;;
37087;SDS011;23002;52.676;6.432;2023-09-12T09:50:46;19.77;;;12.05;;
37087;SDS011;23002;52.676;6.432;2023-09-12T09:53:14;16.70;;;10.88;;
37087;SDS011;23002;52.676;6.432;2023-09-12T09:55:41;18.23;;;11.13;;
37087;SDS011;23002;52.676;6.432;2023-09-12T09:58:08;20.17;;;11.13;;
37087;SDS011;23002;52.676;6.432;2023-09-12T10:00:43;17.33;;;11.20;;
37087;SDS011;23002;52.676;6.432;2023-09-12T10:03:11;15.68;;;9.95;;
37087;SDS011;23002;52.676;6.432;2023-09-12T10:05:39;16.38;;;10.70;;
37087;SDS011;23002;52.676;6.432;2023-09-12T10:08:07;16.33;;;9.65;;
37087;SDS011;23002;52.676;6.432;2023-09-12T10:10:37;18.20;;;10.18;;
37087;SDS011;23002;52.676;6.432;2023-09-12T10:13:05;18.10;;;9.88;;
37087;SDS011;23002;52.676;6.432;2023-09-12T10:15:34;17.00;;;9.77;;
37087;SDS011;23002;52.676;6.432;2023-09-12T10:18:04;18.67;;;10.20;;
37087;SDS011;23002;52.676;6.432;2023-09-12T10:20:38;18.85;;;10.02;;
37087;SDS011;23002;52.676;6.432;2023-09-12T10:23:08;15.18;;;9.70;;
37087;SDS011;23002;52.676;6.432;2023-09-12T10:25:38;17.88;;;10.13;;
37087;SDS011;23002;52.676;6.432;2023-09-12T10:28:06;14.85;;;9.95;;
37087;SDS011;23002;52.676;6.432;2023-09-12T10:30:33;15.15;;;9.90;;
37087;SDS011;23002;52.676;6.432;2023-09-12T10:33:02;16.35;;;9.43;;
37087;SDS011;23002;52.676;6.432;2023-09-12T10:35:30;15.40;;;10.05;;
37087;SDS011;23002;52.676;6.432;2023-09-12T10:38:02;17.42;;;11.02;;
37087;SDS011;23002;52.676;6.432;2023-09-12T10:40:34;16.67;;;11.30;;
37087;SDS011;23002;52.676;6.432;2023-09-12T10:43:08;15.43;;;9.55;;
37087;SDS011;23002;52.676;6.432;2023-09-12T10:45:35;17.63;;;11.27;;
37087;SDS011;23002;52.676;6.432;2023-09-12T10:48:03;17.08;;;10.43;;
37087;SDS011;23002;52.676;6.432;2023-09-12T10:50:31;13.60;;;9.38;;
37087;SDS011;23002;52.676;6.432;2023-09-12T10:53:08;13.45;;;9.35;;
37087;SDS011;23002;52.676;6.432;2023-09-12T10:55:35;15.38;;;10.02;;
37087;SDS011;23002;52.676;6.432;2023-09-12T10:58:03;13.00;;;8.88;;
37087;SDS011;23002;52.676;6.432;2023-09-12T11:00:31;13.60;;;9.70;;
37087;SDS011;23002;52.676;6.432;2023-09-12T11:05:50;13.85;;;8.82;;
37087;SDS011;23002;52.676;6.432;2023-09-12T11:08:19;14.18;;;9.73;;
37087;SDS011;23002;52.676;6.432;2023-09-12T11:13:37;16.13;;;10.05;;
37087;SDS011;23002;52.676;6.432;2023-09-12T11:16:14;14.95;;;8.98;;
37087;SDS011;23002;52.676;6.432;2023-09-12T11:21:33;14.85;;;10.20;;
37087;SDS011;23002;52.676;6.432;2023-09-12T11:24:00;16.42;;;10.13;;
37087;SDS011;23002;52.676;6.432;2023-09-12T11:26:30;14.43;;;10.18;;
37087;SDS011;23002;52.676;6.432;2023-09-12T11:28:57;15.27;;;10.13;;
37087;SDS011;23002;52.676;6.432;2023-09-12T11:31:37;13.97;;;10.53;;
37087;SDS011;23002;52.676;6.432;2023-09-12T11:34:08;16.58;;;10.35;;
37087;SDS011;23002;52.676;6.432;2023-09-12T11:36:43;15.18;;;9.77;;
37087;SDS011;23002;52.676;6.432;2023-09-12T11:39:23;15.90;;;9.70;;
37087;SDS011;23002;52.676;6.432;2023-09-12T11:41:53;16.50;;;10.32;;
37087;SDS011;23002;52.676;6.432;2023-09-12T11:44:22;13.68;;;9.38;;
37087;SDS011;23002;52.676;6.432;2023-09-12T11:46:49;14.60;;;9.82;;
37087;SDS011;23002;52.676;6.432;2023-09-12T11:49:17;15.40;;;10.25;;
37087;SDS011;23002;52.676;6.432;2023-09-12T11:51:51;15.38;;;9.65;;
37087;SDS011;23002;52.676;6.432;2023-09-12T11:54:18;16.23;;;9.80;;
37087;SDS011;23002;52.676;6.432;2023-09-12T11:56:47;13.93;;;8.60;;
37087;SDS011;23002;52.676;6.432;2023-09-12T11:59:15;14.95;;;8.95;;
37087;SDS011;23002;52.676;6.432;2023-09-12T12:01:47;14.65;;;8.52;;
37087;SDS011;23002;52.676;6.432;2023-09-12T12:04:15;15.40;;;9.20;;
37087;SDS011;23002;52.676;6.432;2023-09-12T12:06:42;13.60;;;9.55;;
37087;SDS011;23002;52.676;6.432;2023-09-12T12:09:10;15.50;;;9.07;;
37087;SDS011;23002;52.676;6.432;2023-09-12T12:11:37;12.45;;;7.90;;
37087;SDS011;23002;52.676;6.432;2023-09-12T12:14:15;11.63;;;7.60;;
37087;SDS011;23002;52.676;6.432;2023-09-12T12:16:43;15.38;;;10.02;;
37087;SDS011;23002;52.676;6.432;2023-09-12T12:19:10;14.25;;;8.98;;
37087;SDS011;23002;52.676;6.432;2023-09-12T12:21:41;14.20;;;8.30;;
37087;SDS011;23002;52.676;6.432;2023-09-12T12:24:13;12.90;;;7.60;;
37087;SDS011;23002;52.676;6.432;2023-09-12T12:26:44;12.02;;;7.97;;
37087;SDS011;23002;52.676;6.432;2023-09-12T12:29:11;12.60;;;7.97;;
37087;SDS011;23002;52.676;6.432;2023-09-12T12:31:39;10.90;;;7.13;;
37087;SDS011;23002;52.676;6.432;2023-09-12T12:34:07;12.15;;;6.95;;
37087;SDS011;23002;52.676;6.432;2023-09-12T12:36:40;11.50;;;7.22;;
37087;SDS011;23002;52.676;6.432;2023-09-12T12:39:21;16.83;;;7.20;;
37087;SDS011;23002;52.676;6.432;2023-09-12T12:41:51;12.23;;;7.20;;
37087;SDS011;23002;52.676;6.432;2023-09-12T12:44:19;11.63;;;7.00;;
37087;SDS011;23002;52.676;6.432;2023-09-12T12:46:50;9.95;;;6.30;;
37087;SDS011;23002;52.676;6.432;2023-09-12T12:49:19;13.20;;;6.95;;
37087;SDS011;23002;52.676;6.432;2023-09-12T12:51:46;14.05;;;6.85;;
37087;SDS011;23002;52.676;6.432;2023-09-12T12:54:14;12.73;;;7.05;;
37087;SDS011;23002;52.676;6.432;2023-09-12T12:56:42;9.75;;;4.25;;
37087;SDS011;23002;52.676;6.432;2023-09-12T12:59:11;6.97;;;3.47;;
37087;SDS011;23002;52.676;6.432;2023-09-12T13:01:38;5.38;;;2.95;;
37087;SDS011;23002;52.676;6.432;2023-09-12T13:04:08;7.07;;;3.80;;
37087;SDS011;23002;52.676;6.432;2023-09-12T13:06:36;5.50;;;3.58;;
37087;SDS011;23002;52.676;6.432;2023-09-12T13:09:04;6.97;;;3.80;;
37087;SDS011;23002;52.676;6.432;2023-09-12T13:11:33;7.45;;;4.15;;
37087;SDS011;23002;52.676;6.432;2023-09-12T13:14:03;6.93;;;3.85;;
37087;SDS011;23002;52.676;6.432;2023-09-12T13:16:38;6.95;;;4.25;;
37087;SDS011;23002;52.676;6.432;2023-09-12T13:19:07;8.10;;;3.78;;
37087;SDS011;23002;52.676;6.432;2023-09-12T13:21:34;6.90;;;3.75;;
37087;SDS011;23002;52.676;6.432;2023-09-12T13:24:02;10.52;;;4.53;;
37087;SDS011;23002;52.676;6.432;2023-09-12T13:26:30;6.93;;;4.57;;
37087;SDS011;23002;52.676;6.432;2023-09-12T13:28:58;7.15;;;4.75;;
37087;SDS011;23002;52.676;6.432;2023-09-12T13:31:25;7.50;;;4.22;;
37087;SDS011;23002;52.676;6.432;2023-09-12T13:33:52;8.50;;;4.80;;
37087;SDS011;23002;52.676;6.432;2023-09-12T13:36:20;10.27;;;4.18;;
37087;SDS011;23002;52.676;6.432;2023-09-12T13:38:47;8.52;;;4.22;;
37087;SDS011;23002;52.676;6.432;2023-09-12T13:41:16;9.20;;;4.05;;
37087;SDS011;23002;52.676;6.432;2023-09-12T13:43:43;7.57;;;4.35;;
37087;SDS011;23002;52.676;6.432;2023-09-12T13:46:11;7.78;;;4.15;;
37087;SDS011;23002;52.676;6.432;2023-09-12T13:48:39;6.70;;;4.38;;
37087;SDS011;23002;52.676;6.432;2023-09-12T13:51:07;9.38;;;4.60;;
37087;SDS011;23002;52.676;6.432;2023-09-12T13:53:34;7.43;;;4.10;;
37087;SDS011;23002;52.676;6.432;2023-09-12T13:56:01;6.63;;;3.88;;
37087;SDS011;23002;52.676;6.432;2023-09-12T13:58:48;6.63;;;3.72;;
37087;SDS011;23002;52.676;6.432;2023-09-12T14:01:16;6.60;;;2.80;;
37087;SDS011;23002;52.676;6.432;2023-09-12T14:03:58;6.13;;;3.17;;
37087;SDS011;23002;52.676;6.432;2023-09-12T14:06:26;6.30;;;2.88;;
37087;SDS011;23002;52.676;6.432;2023-09-12T14:08:54;6.60;;;3.25;;
37087;SDS011;23002;52.676;6.432;2023-09-12T14:11:21;6.10;;;2.70;;
37087;SDS011;23002;52.676;6.432;2023-09-12T14:14:01;5.03;;;2.65;;
37087;SDS011;23002;52.676;6.432;2023-09-12T14:16:41;4.00;;;2.50;;
37087;SDS011;23002;52.676;6.432;2023-09-12T14:19:13;5.88;;;2.47;;
37087;SDS011;23002;52.676;6.432;2023-09-12T14:21:41;4.28;;;2.78;;
37087;SDS011;23002;52.676;6.432;2023-09-12T14:24:12;3.92;;;2.35;;
37087;SDS011;23002;52.676;6.432;2023-09-12T14:26:39;4.45;;;2.40;;
37087;SDS011;23002;52.676;6.432;2023-09-12T14:29:07;4.32;;;2.67;;
37087;SDS011;23002;52.676;6.432;2023-09-12T14:31:35;4.90;;;2.33;;
37087;SDS011;23002;52.676;6.432;2023-09-12T14:34:03;6.78;;;2.65;;
37087;SDS011;23002;52.676;6.432;2023-09-12T14:36:32;4.30;;;2.53;;
37087;SDS011;23002;52.676;6.432;2023-09-12T14:38:59;5.65;;;2.75;;
37087;SDS011;23002;52.676;6.432;2023-09-12T14:41:26;6.65;;;3.03;;
37087;SDS011;23002;52.676;6.432;2023-09-12T14:43:54;6.97;;;3.40;;
37087;SDS011;23002;52.676;6.432;2023-09-12T14:46:21;7.03;;;3.58;;
37087;SDS011;23002;52.676;6.432;2023-09-12T14:48:48;4.65;;;2.72;;
37087;SDS011;23002;52.676;6.432;2023-09-12T14:51:27;7.00;;;3.60;;